sensor_id;sensor_type;location;lat;lon;timestamp;temperature;humidity
62575;DHT22;70119;45.638;11.714;2023-07-09T00:02:21;31.10;48.20
62575;DHT22;70119;45.638;11.714;2023-07-09T00:04:47;31.10;48.20
62575;DHT22;70119;45.638;11.714;2023-07-09T00:07:37;31.10;48.30
62575;DHT22;70119;45.638;11.714;2023-07-09T00:10:05;31.10;48.30
62575;DHT22;70119;45.638;11.714;2023-07-09T00:12:31;31.10;48.30
62575;DHT22;70119;45.638;11.714;2023-07-09T00:14:57;31.10;48.40
62575;DHT22;70119;45.638;11.714;2023-07-09T00:17:30;31.10;48.40
62575;DHT22;70119;45.638;11.714;2023-07-09T00:19:59;31.10;48.30
62575;DHT22;70119;45.638;11.714;2023-07-09T00:22:26;31.10;48.30
62575;DHT22;70119;45.638;11.714;2023-07-09T00:24:52;31.10;48.30
62575;DHT22;70119;45.638;11.714;2023-07-09T00:27:24;31.10;48.40
62575;DHT22;70119;45.638;11.714;2023-07-09T00:29:51;31.00;48.40
62575;DHT22;70119;45.638;11.714;2023-07-09T00:32:20;31.00;48.40
62575;DHT22;70119;45.638;11.714;2023-07-09T00:34:47;31.00;48.40
62575;DHT22;70119;45.638;11.714;2023-07-09T00:37:21;31.10;48.30
62575;DHT22;70119;45.638;11.714;2023-07-09T00:39:51;31.00;48.30
62575;DHT22;70119;45.638;11.714;2023-07-09T00:42:21;31.00;48.40
62575;DHT22;70119;45.638;11.714;2023-07-09T00:44:53;31.00;48.40
62575;DHT22;70119;45.638;11.714;2023-07-09T00:50:33;31.00;48.40
62575;DHT22;70119;45.638;11.714;2023-07-09T00:53:15;31.00;48.40
62575;DHT22;70119;45.638;11.714;2023-07-09T00:55:49;31.00;48.40
62575;DHT22;70119;45.638;11.714;2023-07-09T00:58:16;31.00;48.40
62575;DHT22;70119;45.638;11.714;2023-07-09T01:01:04;30.90;48.40
62575;DHT22;70119;45.638;11.714;2023-07-09T01:03:35;30.90;48.30
62575;DHT22;70119;45.638;11.714;2023-07-09T01:06:02;30.90;48.40
62575;DHT22;70119;45.638;11.714;2023-07-09T01:08:33;30.90;48.40
62575;DHT22;70119;45.638;11.714;2023-07-09T01:11:00;30.90;48.40
62575;DHT22;70119;45.638;11.714;2023-07-09T01:13:27;30.90;48.40
62575;DHT22;70119;45.638;11.714;2023-07-09T01:15:54;30.90;48.40
62575;DHT22;70119;45.638;11.714;2023-07-09T01:18:21;30.90;48.30
62575;DHT22;70119;45.638;11.714;2023-07-09T01:20:47;30.90;48.30
62575;DHT22;70119;45.638;11.714;2023-07-09T01:23:13;30.90;48.30
62575;DHT22;70119;45.638;11.714;2023-07-09T01:25:46;30.90;48.30
62575;DHT22;70119;45.638;11.714;2023-07-09T01:28:12;30.90;48.30
62575;DHT22;70119;45.638;11.714;2023-07-09T01:30:40;30.90;48.30
62575;DHT22;70119;45.638;11.714;2023-07-09T01:33:07;31.00;48.30
62575;DHT22;70119;45.638;11.714;2023-07-09T01:35:37;30.90;48.30
62575;DHT22;70119;45.638;11.714;2023-07-09T01:38:06;30.90;48.20
62575;DHT22;70119;45.638;11.714;2023-07-09T01:40:33;30.90;48.20
62575;DHT22;70119;45.638;11.714;2023-07-09T01:43:00;30.90;48.20
62575;DHT22;70119;45.638;11.714;2023-07-09T01:45:27;30.90;48.20
62575;DHT22;70119;45.638;11.714;2023-07-09T01:47:53;30.90;48.20
62575;DHT22;70119;45.638;11.714;2023-07-09T01:50:21;30.90;48.20
62575;DHT22;70119;45.638;11.714;2023-07-09T01:52:47;30.90;48.20
62575;DHT22;70119;45.638;11.714;2023-07-09T01:55:15;30.90;48.20
62575;DHT22;70119;45.638;11.714;2023-07-09T01:57:43;30.90;48.20
62575;DHT22;70119;45.638;11.714;2023-07-09T02:00:11;30.90;48.10
62575;DHT22;70119;45.638;11.714;2023-07-09T02:02:39;31.00;48.20
62575;DHT22;70119;45.638;11.714;2023-07-09T02:05:08;30.90;48.10
62575;DHT22;70119;45.638;11.714;2023-07-09T02:07:35;30.90;48.10
62575;DHT22;70119;45.638;11.714;2023-07-09T02:10:01;30.90;48.10
62575;DHT22;70119;45.638;11.714;2023-07-09T02:12:27;30.90;48.10
62575;DHT22;70119;45.638;11.714;2023-07-09T02:14:53;30.90;48.20
62575;DHT22;70119;45.638;11.714;2023-07-09T02:17:18;31.00;48.00
62575;DHT22;70119;45.638;11.714;2023-07-09T02:19:44;30.90;48.10
62575;DHT22;70119;45.638;11.714;2023-07-09T02:22:11;30.90;48.10
62575;DHT22;70119;45.638;11.714;2023-07-09T02:24:37;30.90;48.20
62575;DHT22;70119;45.638;11.714;2023-07-09T02:27:06;30.90;48.10
62575;DHT22;70119;45.638;11.714;2023-07-09T02:29:32;30.90;48.00
62575;DHT22;70119;45.638;11.714;2023-07-09T02:32:00;31.00;48.00
62575;DHT22;70119;45.638;11.714;2023-07-09T02:34:27;31.00;48.00
62575;DHT22;70119;45.638;11.714;2023-07-09T02:36:55;30.90;48.00
62575;DHT22;70119;45.638;11.714;2023-07-09T02:39:22;30.90;48.00
62575;DHT22;70119;45.638;11.714;2023-07-09T02:41:48;31.10;47.80
62575;DHT22;70119;45.638;11.714;2023-07-09T02:44:14;31.10;47.70
62575;DHT22;70119;45.638;11.714;2023-07-09T02:46:41;31.00;47.90
62575;DHT22;70119;45.638;11.714;2023-07-09T02:49:08;30.90;48.00
62575;DHT22;70119;45.638;11.714;2023-07-09T02:51:34;30.90;48.00
62575;DHT22;70119;45.638;11.714;2023-07-09T02:54:02;30.90;48.00
62575;DHT22;70119;45.638;11.714;2023-07-09T02:56:28;30.90;48.00
62575;DHT22;70119;45.638;11.714;2023-07-09T02:58:54;30.90;48.00
62575;DHT22;70119;45.638;11.714;2023-07-09T03:01:20;31.00;47.90
62575;DHT22;70119;45.638;11.714;2023-07-09T03:03:57;31.00;47.90
62575;DHT22;70119;45.638;11.714;2023-07-09T03:06:26;31.10;47.60
62575;DHT22;70119;45.638;11.714;2023-07-09T03:08:52;31.10;47.60
62575;DHT22;70119;45.638;11.714;2023-07-09T03:11:19;31.00;47.80
62575;DHT22;70119;45.638;11.714;2023-07-09T03:13:45;31.00;47.80
62575;DHT22;70119;45.638;11.714;2023-07-09T03:16:12;31.00;47.90
62575;DHT22;70119;45.638;11.714;2023-07-09T03:18:39;30.90;47.90
62575;DHT22;70119;45.638;11.714;2023-07-09T03:21:05;30.90;47.90
62575;DHT22;70119;45.638;11.714;2023-07-09T03:23:31;30.90;47.90
62575;DHT22;70119;45.638;11.714;2023-07-09T03:25:57;30.90;47.90
62575;DHT22;70119;45.638;11.714;2023-07-09T03:28:25;30.90;47.90
62575;DHT22;70119;45.638;11.714;2023-07-09T03:30:53;30.90;47.90
62575;DHT22;70119;45.638;11.714;2023-07-09T03:33:20;30.90;47.80
62575;DHT22;70119;45.638;11.714;2023-07-09T03:35:46;30.90;47.90
62575;DHT22;70119;45.638;11.714;2023-07-09T03:38:12;30.90;47.90
62575;DHT22;70119;45.638;11.714;2023-07-09T03:40:38;30.90;47.90
62575;DHT22;70119;45.638;11.714;2023-07-09T03:43:05;30.90;47.90
62575;DHT22;70119;45.638;11.714;2023-07-09T03:45:32;30.90;47.80
62575;DHT22;70119;45.638;11.714;2023-07-09T03:47:58;30.90;47.80
62575;DHT22;70119;45.638;11.714;2023-07-09T03:50:24;30.90;47.80
62575;DHT22;70119;45.638;11.714;2023-07-09T03:52:50;30.90;47.80
62575;DHT22;70119;45.638;11.714;2023-07-09T03:55:16;31.00;47.70
62575;DHT22;70119;45.638;11.714;2023-07-09T03:57:42;30.90;47.70
62575;DHT22;70119;45.638;11.714;2023-07-09T04:00:08;30.90;47.80
62575;DHT22;70119;45.638;11.714;2023-07-09T04:02:38;31.00;47.80
62575;DHT22;70119;45.638;11.714;2023-07-09T04:05:04;30.90;47.60
62575;DHT22;70119;45.638;11.714;2023-07-09T04:07:30;31.00;47.50
62575;DHT22;70119;45.638;11.714;2023-07-09T04:09:56;30.90;47.30
62575;DHT22;70119;45.638;11.714;2023-07-09T04:12:22;30.90;47.30
62575;DHT22;70119;45.638;11.714;2023-07-09T04:14:48;30.80;47.30
62575;DHT22;70119;45.638;11.714;2023-07-09T04:17:14;30.80;47.20
62575;DHT22;70119;45.638;11.714;2023-07-09T04:19:40;30.80;47.10
62575;DHT22;70119;45.638;11.714;2023-07-09T04:22:06;30.80;47.00
62575;DHT22;70119;45.638;11.714;2023-07-09T04:24:32;30.80;46.90
62575;DHT22;70119;45.638;11.714;2023-07-09T04:26:59;30.80;46.80
62575;DHT22;70119;45.638;11.714;2023-07-09T04:29:29;30.80;46.70
62575;DHT22;70119;45.638;11.714;2023-07-09T04:31:55;30.80;46.80
62575;DHT22;70119;45.638;11.714;2023-07-09T04:34:21;30.70;46.80
62575;DHT22;70119;45.638;11.714;2023-07-09T04:36:47;30.70;46.80
62575;DHT22;70119;45.638;11.714;2023-07-09T04:39:12;30.70;46.80
62575;DHT22;70119;45.638;11.714;2023-07-09T04:41:39;30.70;46.80
62575;DHT22;70119;45.638;11.714;2023-07-09T04:44:05;30.70;46.80
62575;DHT22;70119;45.638;11.714;2023-07-09T04:46:32;30.70;46.80
62575;DHT22;70119;45.638;11.714;2023-07-09T04:48:58;30.70;46.90
62575;DHT22;70119;45.638;11.714;2023-07-09T04:51:26;30.70;46.90
62575;DHT22;70119;45.638;11.714;2023-07-09T04:53:51;30.60;47.00
62575;DHT22;70119;45.638;11.714;2023-07-09T04:56:18;30.70;47.10
62575;DHT22;70119;45.638;11.714;2023-07-09T04:58:44;30.60;47.10
62575;DHT22;70119;45.638;11.714;2023-07-09T05:01:10;30.60;47.30
62575;DHT22;70119;45.638;11.714;2023-07-09T05:03:36;30.60;47.20
62575;DHT22;70119;45.638;11.714;2023-07-09T05:06:03;30.70;47.30
62575;DHT22;70119;45.638;11.714;2023-07-09T05:08:29;30.70;47.30
62575;DHT22;70119;45.638;11.714;2023-07-09T05:10:56;30.70;47.30
62575;DHT22;70119;45.638;11.714;2023-07-09T05:13:24;30.70;47.40
62575;DHT22;70119;45.638;11.714;2023-07-09T05:15:51;30.70;47.40
62575;DHT22;70119;45.638;11.714;2023-07-09T05:18:17;30.70;47.40
62575;DHT22;70119;45.638;11.714;2023-07-09T05:20:45;30.70;47.50
62575;DHT22;70119;45.638;11.714;2023-07-09T05:23:12;30.70;47.60
62575;DHT22;70119;45.638;11.714;2023-07-09T05:25:37;30.70;47.60
62575;DHT22;70119;45.638;11.714;2023-07-09T05:28:04;30.70;47.70
62575;DHT22;70119;45.638;11.714;2023-07-09T05:30:30;30.70;47.80
62575;DHT22;70119;45.638;11.714;2023-07-09T05:32:56;30.80;47.90
62575;DHT22;70119;45.638;11.714;2023-07-09T05:35:26;30.80;47.90
62575;DHT22;70119;45.638;11.714;2023-07-09T05:37:53;30.70;48.00
62575;DHT22;70119;45.638;11.714;2023-07-09T05:40:20;30.80;48.00
62575;DHT22;70119;45.638;11.714;2023-07-09T05:42:47;30.80;48.00
62575;DHT22;70119;45.638;11.714;2023-07-09T05:45:14;30.70;48.00
62575;DHT22;70119;45.638;11.714;2023-07-09T05:47:40;30.70;48.00
62575;DHT22;70119;45.638;11.714;2023-07-09T05:50:06;30.80;48.00
62575;DHT22;70119;45.638;11.714;2023-07-09T05:52:32;30.80;48.00
62575;DHT22;70119;45.638;11.714;2023-07-09T05:54:58;30.80;48.00
62575;DHT22;70119;45.638;11.714;2023-07-09T05:57:25;30.80;48.00
62575;DHT22;70119;45.638;11.714;2023-07-09T05:59:51;30.80;48.10
62575;DHT22;70119;45.638;11.714;2023-07-09T06:02:19;30.80;48.10
62575;DHT22;70119;45.638;11.714;2023-07-09T06:04:45;30.80;48.10
62575;DHT22;70119;45.638;11.714;2023-07-09T06:07:12;30.80;48.00
62575;DHT22;70119;45.638;11.714;2023-07-09T06:09:40;30.80;48.00
62575;DHT22;70119;45.638;11.714;2023-07-09T06:12:07;30.80;47.90
62575;DHT22;70119;45.638;11.714;2023-07-09T06:14:33;30.90;47.90
62575;DHT22;70119;45.638;11.714;2023-07-09T06:17:00;30.80;47.90
62575;DHT22;70119;45.638;11.714;2023-07-09T06:19:26;30.90;47.90
62575;DHT22;70119;45.638;11.714;2023-07-09T06:21:52;30.90;47.80
62575;DHT22;70119;45.638;11.714;2023-07-09T06:24:18;30.90;47.80
62575;DHT22;70119;45.638;11.714;2023-07-09T06:26:44;30.90;47.80
62575;DHT22;70119;45.638;11.714;2023-07-09T06:29:10;30.90;47.80
62575;DHT22;70119;45.638;11.714;2023-07-09T06:31:36;30.90;47.80
62575;DHT22;70119;45.638;11.714;2023-07-09T06:34:03;30.90;47.80
62575;DHT22;70119;45.638;11.714;2023-07-09T06:36:29;31.00;47.80
62575;DHT22;70119;45.638;11.714;2023-07-09T06:38:55;31.00;47.80
62575;DHT22;70119;45.638;11.714;2023-07-09T06:41:20;31.00;47.80
62575;DHT22;70119;45.638;11.714;2023-07-09T06:43:47;31.00;47.80
62575;DHT22;70119;45.638;11.714;2023-07-09T06:46:18;31.00;47.80
62575;DHT22;70119;45.638;11.714;2023-07-09T06:48:48;31.00;47.80
62575;DHT22;70119;45.638;11.714;2023-07-09T06:51:17;31.00;47.80
62575;DHT22;70119;45.638;11.714;2023-07-09T06:53:46;31.00;47.80
62575;DHT22;70119;45.638;11.714;2023-07-09T06:56:17;31.00;47.80
62575;DHT22;70119;45.638;11.714;2023-07-09T06:58:45;31.00;47.70
62575;DHT22;70119;45.638;11.714;2023-07-09T07:01:12;31.00;47.70
62575;DHT22;70119;45.638;11.714;2023-07-09T07:03:40;31.00;47.70
62575;DHT22;70119;45.638;11.714;2023-07-09T07:06:07;31.00;47.60
62575;DHT22;70119;45.638;11.714;2023-07-09T07:08:35;31.00;47.70
62575;DHT22;70119;45.638;11.714;2023-07-09T07:11:02;31.10;47.60
62575;DHT22;70119;45.638;11.714;2023-07-09T07:13:31;31.10;47.60
62575;DHT22;70119;45.638;11.714;2023-07-09T07:15:58;31.10;47.50
62575;DHT22;70119;45.638;11.714;2023-07-09T07:18:24;31.10;47.50
62575;DHT22;70119;45.638;11.714;2023-07-09T07:20:50;31.10;47.50
62575;DHT22;70119;45.638;11.714;2023-07-09T07:23:17;31.10;47.50
62575;DHT22;70119;45.638;11.714;2023-07-09T07:25:44;31.10;47.40
62575;DHT22;70119;45.638;11.714;2023-07-09T07:28:10;31.10;47.40
62575;DHT22;70119;45.638;11.714;2023-07-09T07:30:35;31.20;47.40
62575;DHT22;70119;45.638;11.714;2023-07-09T07:33:01;31.20;47.30
62575;DHT22;70119;45.638;11.714;2023-07-09T07:35:27;31.20;47.30
62575;DHT22;70119;45.638;11.714;2023-07-09T07:37:53;31.20;47.20
62575;DHT22;70119;45.638;11.714;2023-07-09T07:40:19;31.20;47.20
62575;DHT22;70119;45.638;11.714;2023-07-09T07:42:45;31.20;47.20
62575;DHT22;70119;45.638;11.714;2023-07-09T07:45:11;31.30;47.20
62575;DHT22;70119;45.638;11.714;2023-07-09T07:47:37;31.30;47.20
62575;DHT22;70119;45.638;11.714;2023-07-09T07:50:05;31.30;47.30
62575;DHT22;70119;45.638;11.714;2023-07-09T07:52:32;31.30;47.30
62575;DHT22;70119;45.638;11.714;2023-07-09T07:54:58;31.20;47.30
62575;DHT22;70119;45.638;11.714;2023-07-09T07:57:27;31.20;47.30
62575;DHT22;70119;45.638;11.714;2023-07-09T07:59:53;31.20;47.20
62575;DHT22;70119;45.638;11.714;2023-07-09T08:02:19;31.20;47.20
62575;DHT22;70119;45.638;11.714;2023-07-09T08:04:44;31.30;47.20
62575;DHT22;70119;45.638;11.714;2023-07-09T08:07:10;31.30;47.30
62575;DHT22;70119;45.638;11.714;2023-07-09T08:09:37;31.30;47.50
62575;DHT22;70119;45.638;11.714;2023-07-09T08:12:04;31.30;47.40
62575;DHT22;70119;45.638;11.714;2023-07-09T08:14:36;31.30;47.40
62575;DHT22;70119;45.638;11.714;2023-07-09T08:17:02;31.30;47.30
62575;DHT22;70119;45.638;11.714;2023-07-09T08:19:28;31.30;47.30
62575;DHT22;70119;45.638;11.714;2023-07-09T08:21:54;31.30;47.30
62575;DHT22;70119;45.638;11.714;2023-07-09T08:24:19;31.30;47.30
62575;DHT22;70119;45.638;11.714;2023-07-09T08:26:45;31.30;47.30
62575;DHT22;70119;45.638;11.714;2023-07-09T08:29:11;31.30;47.70
62575;DHT22;70119;45.638;11.714;2023-07-09T08:31:37;31.30;48.00
62575;DHT22;70119;45.638;11.714;2023-07-09T08:34:05;31.30;47.80
62575;DHT22;70119;45.638;11.714;2023-07-09T08:36:31;31.30;47.90
62575;DHT22;70119;45.638;11.714;2023-07-09T08:38:57;31.30;47.90
62575;DHT22;70119;45.638;11.714;2023-07-09T08:41:52;31.30;47.80
62575;DHT22;70119;45.638;11.714;2023-07-09T08:47:52;31.30;47.60
62575;DHT22;70119;45.638;11.714;2023-07-09T08:50:27;31.30;47.50
62575;DHT22;70119;45.638;11.714;2023-07-09T08:52:56;31.30;47.50
62575;DHT22;70119;45.638;11.714;2023-07-09T08:55:27;31.30;47.70
62575;DHT22;70119;45.638;11.714;2023-07-09T08:58:04;31.40;48.00
62575;DHT22;70119;45.638;11.714;2023-07-09T09:00:45;31.30;47.70
62575;DHT22;70119;45.638;11.714;2023-07-09T09:03:26;31.40;47.50
62575;DHT22;70119;45.638;11.714;2023-07-09T09:05:54;31.30;47.80
62575;DHT22;70119;45.638;11.714;2023-07-09T09:08:32;31.40;47.90
62575;DHT22;70119;45.638;11.714;2023-07-09T09:11:04;31.30;47.90
62575;DHT22;70119;45.638;11.714;2023-07-09T09:13:32;31.30;48.00
62575;DHT22;70119;45.638;11.714;2023-07-09T09:16:02;31.30;47.70
62575;DHT22;70119;45.638;11.714;2023-07-09T09:18:41;31.30;47.60
62575;DHT22;70119;45.638;11.714;2023-07-09T09:26:48;31.40;47.70
62575;DHT22;70119;45.638;11.714;2023-07-09T09:29:16;31.40;47.80
62575;DHT22;70119;45.638;11.714;2023-07-09T09:31:48;31.40;47.70
62575;DHT22;70119;45.638;11.714;2023-07-09T09:34:26;31.40;47.70
62575;DHT22;70119;45.638;11.714;2023-07-09T09:36:53;31.40;47.90
62575;DHT22;70119;45.638;11.714;2023-07-09T09:39:19;31.40;48.00
62575;DHT22;70119;45.638;11.714;2023-07-09T09:41:46;31.40;47.90
62575;DHT22;70119;45.638;11.714;2023-07-09T09:44:24;31.40;47.90
62575;DHT22;70119;45.638;11.714;2023-07-09T09:46:51;31.40;47.80
62575;DHT22;70119;45.638;11.714;2023-07-09T09:49:17;31.40;47.70
62575;DHT22;70119;45.638;11.714;2023-07-09T09:51:45;31.40;47.60
62575;DHT22;70119;45.638;11.714;2023-07-09T09:54:20;31.40;47.60
62575;DHT22;70119;45.638;11.714;2023-07-09T09:56:48;31.40;47.70
62575;DHT22;70119;45.638;11.714;2023-07-09T09:59:25;31.40;47.70
62575;DHT22;70119;45.638;11.714;2023-07-09T10:02:01;31.40;47.80
62575;DHT22;70119;45.638;11.714;2023-07-09T10:04:28;31.40;47.90
62575;DHT22;70119;45.638;11.714;2023-07-09T10:07:03;31.40;47.70
62575;DHT22;70119;45.638;11.714;2023-07-09T10:09:49;31.40;47.80
62575;DHT22;70119;45.638;11.714;2023-07-09T10:12:40;31.40;47.80
62575;DHT22;70119;45.638;11.714;2023-07-09T10:21:10;31.40;47.80
62575;DHT22;70119;45.638;11.714;2023-07-09T10:28:43;31.40;48.00
62575;DHT22;70119;45.638;11.714;2023-07-09T10:34:10;31.40;47.60
62575;DHT22;70119;45.638;11.714;2023-07-09T10:39:18;31.40;47.60
62575;DHT22;70119;45.638;11.714;2023-07-09T10:41:46;31.40;47.70
62575;DHT22;70119;45.638;11.714;2023-07-09T10:46:42;31.50;47.50
62575;DHT22;70119;45.638;11.714;2023-07-09T10:49:12;31.50;47.50
62575;DHT22;70119;45.638;11.714;2023-07-09T10:51:41;31.50;47.50
62575;DHT22;70119;45.638;11.714;2023-07-09T10:57:02;31.50;47.30
62575;DHT22;70119;45.638;11.714;2023-07-09T10:59:33;31.50;47.40
62575;DHT22;70119;45.638;11.714;2023-07-09T11:02:16;31.50;47.40
62575;DHT22;70119;45.638;11.714;2023-07-09T11:04:47;31.50;47.30
62575;DHT22;70119;45.638;11.714;2023-07-09T11:07:17;31.50;47.40
62575;DHT22;70119;45.638;11.714;2023-07-09T11:09:46;31.50;47.50
62575;DHT22;70119;45.638;11.714;2023-07-09T11:12:50;31.50;47.60
62575;DHT22;70119;45.638;11.714;2023-07-09T11:15:21;31.50;47.40
62575;DHT22;70119;45.638;11.714;2023-07-09T11:17:50;31.50;47.40
62575;DHT22;70119;45.638;11.714;2023-07-09T11:20:36;31.50;47.40
62575;DHT22;70119;45.638;11.714;2023-07-09T11:23:22;31.50;47.50
62575;DHT22;70119;45.638;11.714;2023-07-09T11:28:50;31.50;47.40
62575;DHT22;70119;45.638;11.714;2023-07-09T11:31:45;31.50;47.50
62575;DHT22;70119;45.638;11.714;2023-07-09T11:36:59;31.50;47.50
62575;DHT22;70119;45.638;11.714;2023-07-09T11:39:31;31.50;47.40
62575;DHT22;70119;45.638;11.714;2023-07-09T11:41:58;31.50;47.60
62575;DHT22;70119;45.638;11.714;2023-07-09T11:44:28;31.50;47.60
62575;DHT22;70119;45.638;11.714;2023-07-09T11:50:23;31.50;47.50
62575;DHT22;70119;45.638;11.714;2023-07-09T11:52:56;31.50;47.50
62575;DHT22;70119;45.638;11.714;2023-07-09T11:58:02;31.60;47.50
62575;DHT22;70119;45.638;11.714;2023-07-09T12:00:44;31.60;47.40
62575;DHT22;70119;45.638;11.714;2023-07-09T12:03:22;31.60;47.40
62575;DHT22;70119;45.638;11.714;2023-07-09T12:05:52;31.60;47.40
62575;DHT22;70119;45.638;11.714;2023-07-09T12:08:22;31.60;47.40
62575;DHT22;70119;45.638;11.714;2023-07-09T12:10:53;31.50;47.40
62575;DHT22;70119;45.638;11.714;2023-07-09T12:13:19;31.60;47.40
62575;DHT22;70119;45.638;11.714;2023-07-09T12:15:44;31.60;47.50
62575;DHT22;70119;45.638;11.714;2023-07-09T12:18:13;31.60;47.50
62575;DHT22;70119;45.638;11.714;2023-07-09T12:20:39;31.60;47.40
62575;DHT22;70119;45.638;11.714;2023-07-09T12:23:32;31.60;47.40
62575;DHT22;70119;45.638;11.714;2023-07-09T12:26:04;31.60;47.40
62575;DHT22;70119;45.638;11.714;2023-07-09T12:28:30;31.60;47.40
62575;DHT22;70119;45.638;11.714;2023-07-09T12:30:56;31.60;47.50
62575;DHT22;70119;45.638;11.714;2023-07-09T12:33:27;31.60;47.60
62575;DHT22;70119;45.638;11.714;2023-07-09T12:35:59;31.60;47.60
62575;DHT22;70119;45.638;11.714;2023-07-09T12:38:29;31.60;47.50
62575;DHT22;70119;45.638;11.714;2023-07-09T12:40:55;31.60;47.50
62575;DHT22;70119;45.638;11.714;2023-07-09T12:43:27;31.60;47.50
62575;DHT22;70119;45.638;11.714;2023-07-09T12:45:54;31.60;47.50
62575;DHT22;70119;45.638;11.714;2023-07-09T12:48:26;31.60;47.50
62575;DHT22;70119;45.638;11.714;2023-07-09T12:50:56;31.60;47.50
62575;DHT22;70119;45.638;11.714;2023-07-09T12:53:28;31.60;47.50
62575;DHT22;70119;45.638;11.714;2023-07-09T12:55:59;31.60;47.50
62575;DHT22;70119;45.638;11.714;2023-07-09T12:58:36;31.60;47.50
62575;DHT22;70119;45.638;11.714;2023-07-09T13:01:06;31.60;47.50
62575;DHT22;70119;45.638;11.714;2023-07-09T13:03:33;31.60;47.50
62575;DHT22;70119;45.638;11.714;2023-07-09T13:06:24;31.60;47.50
62575;DHT22;70119;45.638;11.714;2023-07-09T13:08:58;31.60;47.50
62575;DHT22;70119;45.638;11.714;2023-07-09T13:11:26;31.60;47.40
62575;DHT22;70119;45.638;11.714;2023-07-09T13:14:01;31.60;47.50
62575;DHT22;70119;45.638;11.714;2023-07-09T13:16:27;31.60;47.50
62575;DHT22;70119;45.638;11.714;2023-07-09T13:18:54;31.60;47.40
62575;DHT22;70119;45.638;11.714;2023-07-09T13:21:21;31.60;47.40
62575;DHT22;70119;45.638;11.714;2023-07-09T13:23:48;31.60;47.40
62575;DHT22;70119;45.638;11.714;2023-07-09T13:26:15;31.60;47.40
62575;DHT22;70119;45.638;11.714;2023-07-09T13:28:42;31.60;47.40
62575;DHT22;70119;45.638;11.714;2023-07-09T13:33:37;31.60;47.50
62575;DHT22;70119;45.638;11.714;2023-07-09T13:36:03;31.60;47.50
62575;DHT22;70119;45.638;11.714;2023-07-09T13:38:29;31.60;47.50
62575;DHT22;70119;45.638;11.714;2023-07-09T13:41:01;31.60;47.40
62575;DHT22;70119;45.638;11.714;2023-07-09T13:43:35;31.60;47.40
62575;DHT22;70119;45.638;11.714;2023-07-09T13:46:03;31.60;47.40
62575;DHT22;70119;45.638;11.714;2023-07-09T13:48:31;31.70;47.40
62575;DHT22;70119;45.638;11.714;2023-07-09T13:50:58;31.70;47.40
62575;DHT22;70119;45.638;11.714;2023-07-09T13:53:29;31.70;47.40
62575;DHT22;70119;45.638;11.714;2023-07-09T13:55:55;31.70;47.30
62575;DHT22;70119;45.638;11.714;2023-07-09T13:58:23;31.80;47.40
62575;DHT22;70119;45.638;11.714;2023-07-09T14:00:53;31.80;47.30
62575;DHT22;70119;45.638;11.714;2023-07-09T14:03:28;31.80;47.30
62575;DHT22;70119;45.638;11.714;2023-07-09T14:05:55;31.80;47.40
62575;DHT22;70119;45.638;11.714;2023-07-09T14:08:21;31.80;47.40
62575;DHT22;70119;45.638;11.714;2023-07-09T14:10:48;31.80;47.40
62575;DHT22;70119;45.638;11.714;2023-07-09T14:13:17;31.80;47.40
62575;DHT22;70119;45.638;11.714;2023-07-09T14:15:44;31.90;47.30
62575;DHT22;70119;45.638;11.714;2023-07-09T14:18:16;32.10;46.90
62575;DHT22;70119;45.638;11.714;2023-07-09T14:20:42;32.10;46.60
62575;DHT22;70119;45.638;11.714;2023-07-09T14:23:11;32.10;46.60
62575;DHT22;70119;45.638;11.714;2023-07-09T14:25:37;32.20;46.50
62575;DHT22;70119;45.638;11.714;2023-07-09T14:28:12;32.20;46.40
62575;DHT22;70119;45.638;11.714;2023-07-09T14:30:39;32.20;46.40
62575;DHT22;70119;45.638;11.714;2023-07-09T14:33:13;32.20;46.40
62575;DHT22;70119;45.638;11.714;2023-07-09T14:35:40;32.20;46.40
62575;DHT22;70119;45.638;11.714;2023-07-09T14:38:24;32.20;46.40
62575;DHT22;70119;45.638;11.714;2023-07-09T14:40:52;32.10;46.80
62575;DHT22;70119;45.638;11.714;2023-07-09T14:43:19;32.00;47.10
62575;DHT22;70119;45.638;11.714;2023-07-09T14:45:45;31.90;47.30
62575;DHT22;70119;45.638;11.714;2023-07-09T14:48:12;32.10;46.80
62575;DHT22;70119;45.638;11.714;2023-07-09T14:50:39;32.10;46.70
62575;DHT22;70119;45.638;11.714;2023-07-09T14:53:26;32.20;46.70
62575;DHT22;70119;45.638;11.714;2023-07-09T14:55:53;32.20;46.60
62575;DHT22;70119;45.638;11.714;2023-07-09T14:58:23;32.20;46.70
62575;DHT22;70119;45.638;11.714;2023-07-09T15:00:49;32.20;46.70
62575;DHT22;70119;45.638;11.714;2023-07-09T15:05:46;32.00;47.20
62575;DHT22;70119;45.638;11.714;2023-07-09T15:08:13;32.00;47.30
62575;DHT22;70119;45.638;11.714;2023-07-09T15:10:40;32.00;47.30
62575;DHT22;70119;45.638;11.714;2023-07-09T15:13:15;32.00;47.30
62575;DHT22;70119;45.638;11.714;2023-07-09T15:15:41;32.10;46.80
62575;DHT22;70119;45.638;11.714;2023-07-09T15:18:13;32.20;46.70
62575;DHT22;70119;45.638;11.714;2023-07-09T15:20:43;32.30;46.60
62575;DHT22;70119;45.638;11.714;2023-07-09T15:23:12;32.30;46.60
62575;DHT22;70119;45.638;11.714;2023-07-09T15:25:38;32.20;46.50
62575;DHT22;70119;45.638;11.714;2023-07-09T15:28:03;32.30;46.50
62575;DHT22;70119;45.638;11.714;2023-07-09T15:30:30;32.30;46.50
62575;DHT22;70119;45.638;11.714;2023-07-09T15:32:58;32.30;46.50
62575;DHT22;70119;45.638;11.714;2023-07-09T15:35:32;32.30;46.50
62575;DHT22;70119;45.638;11.714;2023-07-09T15:37:59;32.30;46.40
62575;DHT22;70119;45.638;11.714;2023-07-09T15:40:27;32.30;46.50
62575;DHT22;70119;45.638;11.714;2023-07-09T15:43:05;32.30;46.50
62575;DHT22;70119;45.638;11.714;2023-07-09T15:45:37;32.30;46.50
62575;DHT22;70119;45.638;11.714;2023-07-09T15:48:05;32.30;46.50
62575;DHT22;70119;45.638;11.714;2023-07-09T15:50:33;32.30;46.50
62575;DHT22;70119;45.638;11.714;2023-07-09T15:52:59;32.30;46.50
62575;DHT22;70119;45.638;11.714;2023-07-09T15:55:26;32.30;46.50
62575;DHT22;70119;45.638;11.714;2023-07-09T15:57:54;32.30;46.40
62575;DHT22;70119;45.638;11.714;2023-07-09T16:00:24;32.40;46.40
62575;DHT22;70119;45.638;11.714;2023-07-09T16:02:51;32.40;46.40
62575;DHT22;70119;45.638;11.714;2023-07-09T16:05:23;32.40;46.40
62575;DHT22;70119;45.638;11.714;2023-07-09T16:07:50;32.40;46.40
62575;DHT22;70119;45.638;11.714;2023-07-09T16:10:17;32.40;46.40
62575;DHT22;70119;45.638;11.714;2023-07-09T16:12:43;32.40;46.40
62575;DHT22;70119;45.638;11.714;2023-07-09T16:15:14;32.30;46.40
62575;DHT22;70119;45.638;11.714;2023-07-09T16:17:44;32.40;46.40